sensor_id;sensor_type;location;lat;lon;timestamp;pressure;altitude;pressure_sealevel;temperature;humidity
9740;BME280;4909;42.680;26.324;2023-12-20T00:01:57;98964.16;;;7.10;77.98
9740;BME280;4909;42.680;26.324;2023-12-20T00:04:24;98948.59;;;6.97;78.41
9740;BME280;4909;42.680;26.324;2023-12-20T00:06:51;98948.78;;;6.91;79.03
9740;BME280;4909;42.680;26.324;2023-12-20T00:09:18;98960.03;;;6.98;79.21
9740;BME280;4909;42.680;26.324;2023-12-20T00:11:46;98955.63;;;6.98;79.65
9740;BME280;4909;42.680;26.324;2023-12-20T00:14:13;98900.88;;;6.73;79.57
9740;BME280;4909;42.680;26.324;2023-12-20T00:16:40;98938.13;;;6.94;79.57
9740;BME280;4909;42.680;26.324;2023-12-20T00:19:07;98944.88;;;7.06;79.39
9740;BME280;4909;42.680;26.324;2023-12-20T00:21:34;98940.03;;;7.23;78.58
9740;BME280;4909;42.680;26.324;2023-12-20T00:24:01;98943.63;;;7.21;78.75
9740;BME280;4909;42.680;26.324;2023-12-20T00:26:28;98892.13;;;7.05;78.01
9740;BME280;4909;42.680;26.324;2023-12-20T00:28:56;98937.28;;;7.26;78.16
9740;BME280;4909;42.680;26.324;2023-12-20T00:31:23;98909.00;;;6.99;78.15
9740;BME280;4909;42.680;26.324;2023-12-20T00:33:50;98805.00;;;6.40;77.85
9740;BME280;4909;42.680;26.324;2023-12-20T00:36:17;98870.06;;;6.73;77.67
9740;BME280;4909;42.680;26.324;2023-12-20T00:38:45;98910.81;;;6.97;78.18
9740;BME280;4909;42.680;26.324;2023-12-20T00:41:12;98932.72;;;7.01;78.31
9740;BME280;4909;42.680;26.324;2023-12-20T00:43:39;98837.63;;;6.36;78.51
9740;BME280;4909;42.680;26.324;2023-12-20T00:46:07;98940.88;;;6.91;78.58
9740;BME280;4909;42.680;26.324;2023-12-20T00:48:34;98930.19;;;6.96;78.36
9740;BME280;4909;42.680;26.324;2023-12-20T00:51:01;98901.59;;;6.78;79.07
9740;BME280;4909;42.680;26.324;2023-12-20T00:53:29;98842.63;;;6.46;79.02
9740;BME280;4909;42.680;26.324;2023-12-20T00:55:56;98928.34;;;6.98;78.57
9740;BME280;4909;42.680;26.324;2023-12-20T00:58:24;98927.84;;;6.84;79.64
9740;BME280;4909;42.680;26.324;2023-12-20T01:00:52;98922.41;;;6.90;79.10
9740;BME280;4909;42.680;26.324;2023-12-20T01:03:20;98904.16;;;6.82;79.08
9740;BME280;4909;42.680;26.324;2023-12-20T01:05:47;98889.41;;;6.74;79.72
9740;BME280;4909;42.680;26.324;2023-12-20T01:08:14;98901.59;;;6.78;80.61
9740;BME280;4909;42.680;26.324;2023-12-20T01:10:41;98896.41;;;6.75;80.36
9740;BME280;4909;42.680;26.324;2023-12-20T01:13:08;98914.34;;;6.96;79.57
9740;BME280;4909;42.680;26.324;2023-12-20T01:15:35;98901.97;;;6.98;79.00
9740;BME280;4909;42.680;26.324;2023-12-20T01:18:03;98821.44;;;6.49;78.88
9740;BME280;4909;42.680;26.324;2023-12-20T01:20:31;98891.34;;;7.01;78.95
9740;BME280;4909;42.680;26.324;2023-12-20T01:22:58;98897.53;;;7.00;79.42
9740;BME280;4909;42.680;26.324;2023-12-20T01:25:25;98894.03;;;6.99;79.34
9740;BME280;4909;42.680;26.324;2023-12-20T01:27:52;98888.00;;;6.94;79.75
9740;BME280;4909;42.680;26.324;2023-12-20T01:30:19;98842.56;;;6.83;79.05
9740;BME280;4909;42.680;26.324;2023-12-20T01:32:46;98876.28;;;7.06;78.66
9740;BME280;4909;42.680;26.324;2023-12-20T01:35:13;98879.84;;;7.04;79.21
9740;BME280;4909;42.680;26.324;2023-12-20T01:37:42;98871.13;;;7.02;78.28
9740;BME280;4909;42.680;26.324;2023-12-20T01:40:10;98863.34;;;6.95;79.09
9740;BME280;4909;42.680;26.324;2023-12-20T01:42:37;98864.34;;;6.91;79.09
9740;BME280;4909;42.680;26.324;2023-12-20T01:45:05;98860.84;;;6.91;79.01
9740;BME280;4909;42.680;26.324;2023-12-20T01:47:32;98850.13;;;6.97;78.59
9740;BME280;4909;42.680;26.324;2023-12-20T01:49:59;98832.69;;;6.91;78.29
9740;BME280;4909;42.680;26.324;2023-12-20T01:52:29;98746.84;;;6.46;77.25
9740;BME280;4909;42.680;26.324;2023-12-20T01:54:58;98841.88;;;7.09;77.83
9740;BME280;4909;42.680;26.324;2023-12-20T01:57:28;98781.56;;;6.63;78.24
9740;BME280;4909;42.680;26.324;2023-12-20T01:59:56;98762.47;;;6.53;78.07
9740;BME280;4909;42.680;26.324;2023-12-20T02:02:23;98841.22;;;7.01;77.71
9740;BME280;4909;42.680;26.324;2023-12-20T02:04:50;98823.81;;;6.94;77.87
9740;BME280;4909;42.680;26.324;2023-12-20T02:07:18;98833.22;;;7.04;77.99
9740;BME280;4909;42.680;26.324;2023-12-20T02:09:46;98832.56;;;6.96;78.70
9740;BME280;4909;42.680;26.324;2023-12-20T02:12:15;98824.19;;;6.80;79.76
9740;BME280;4909;42.680;26.324;2023-12-20T02:14:42;98824.16;;;6.82;79.95
9740;BME280;4909;42.680;26.324;2023-12-20T02:17:09;98822.47;;;6.78;80.10
9740;BME280;4909;42.680;26.324;2023-12-20T02:19:36;98819.94;;;6.73;80.63
9740;BME280;4909;42.680;26.324;2023-12-20T02:22:08;98772.50;;;6.39;80.91
9740;BME280;4909;42.680;26.324;2023-12-20T02:24:35;98814.81;;;6.69;81.08
9740;BME280;4909;42.680;26.324;2023-12-20T02:27:03;98773.13;;;6.49;80.88
9740;BME280;4909;42.680;26.324;2023-12-20T02:29:32;98806.88;;;6.69;81.28
9740;BME280;4909;42.680;26.324;2023-12-20T02:32:00;98789.34;;;6.68;80.93
9740;BME280;4909;42.680;26.324;2023-12-20T02:34:27;98697.56;;;6.16;80.99
9740;BME280;4909;42.680;26.324;2023-12-20T02:36:54;98763.44;;;6.49;80.79
9740;BME280;4909;42.680;26.324;2023-12-20T02:39:22;98797.91;;;6.76;80.67
9740;BME280;4909;42.680;26.324;2023-12-20T02:41:49;98779.75;;;6.64;80.74
9740;BME280;4909;42.680;26.324;2023-12-20T02:44:16;98760.88;;;6.48;81.40
9740;BME280;4909;42.680;26.324;2023-12-20T02:46:43;98630.75;;;5.83;80.99
9740;BME280;4909;42.680;26.324;2023-12-20T02:49:10;98760.38;;;6.66;80.79
9740;BME280;4909;42.680;26.324;2023-12-20T02:51:37;98792.56;;;6.79;80.95
9740;BME280;4909;42.680;26.324;2023-12-20T02:54:04;98777.75;;;6.73;80.66
9740;BME280;4909;42.680;26.324;2023-12-20T02:56:33;98776.34;;;6.60;82.28
9740;BME280;4909;42.680;26.324;2023-12-20T02:59:01;98721.50;;;6.40;81.64
9740;BME280;4909;42.680;26.324;2023-12-20T03:01:31;98747.50;;;6.54;81.21
9740;BME280;4909;42.680;26.324;2023-12-20T03:03:58;98668.78;;;6.08;80.83
9740;BME280;4909;42.680;26.324;2023-12-20T03:06:24;98768.06;;;6.74;80.61
9740;BME280;4909;42.680;26.324;2023-12-20T03:08:51;98739.38;;;6.63;80.67
9740;BME280;4909;42.680;26.324;2023-12-20T03:11:18;98716.69;;;6.56;80.39
9740;BME280;4909;42.680;26.324;2023-12-20T03:13:47;98774.97;;;6.79;79.91
9740;BME280;4909;42.680;26.324;2023-12-20T03:16:14;98737.53;;;6.65;80.02
9740;BME280;4909;42.680;26.324;2023-12-20T03:18:42;98669.44;;;6.16;80.55
9740;BME280;4909;42.680;26.324;2023-12-20T03:21:09;98744.75;;;6.59;80.19
9740;BME280;4909;42.680;26.324;2023-12-20T03:23:36;98761.75;;;6.79;80.06
9740;BME280;4909;42.680;26.324;2023-12-20T03:26:03;98721.94;;;6.58;79.83
9740;BME280;4909;42.680;26.324;2023-12-20T03:28:33;98760.03;;;6.78;80.23
9740;BME280;4909;42.680;26.324;2023-12-20T03:31:02;98761.13;;;6.71;80.70
9740;BME280;4909;42.680;26.324;2023-12-20T03:33:29;98756.53;;;6.45;81.47
9740;BME280;4909;42.680;26.324;2023-12-20T03:35:56;98755.59;;;6.48;82.11
9740;BME280;4909;42.680;26.324;2023-12-20T03:38:23;98758.34;;;6.43;82.50
9740;BME280;4909;42.680;26.324;2023-12-20T03:40:50;98760.78;;;6.51;82.59
9740;BME280;4909;42.680;26.324;2023-12-20T03:43:17;98749.22;;;6.57;81.50
9740;BME280;4909;42.680;26.324;2023-12-20T03:45:44;98742.06;;;6.60;81.82
9740;BME280;4909;42.680;26.324;2023-12-20T03:48:12;98722.63;;;6.32;82.39
9740;BME280;4909;42.680;26.324;2023-12-20T03:50:40;98707.94;;;6.22;82.58
9740;BME280;4909;42.680;26.324;2023-12-20T03:53:07;98712.84;;;6.35;82.05
9740;BME280;4909;42.680;26.324;2023-12-20T03:55:34;98744.69;;;6.62;80.93
9740;BME280;4909;42.680;26.324;2023-12-20T03:58:01;98718.84;;;6.42;80.52
9740;BME280;4909;42.680;26.324;2023-12-20T04:00:28;98629.88;;;5.84;80.40
9740;BME280;4909;42.680;26.324;2023-12-20T04:02:55;98629.03;;;5.82;80.16
9740;BME280;4909;42.680;26.324;2023-12-20T04:05:23;98726.88;;;6.37;79.93
9740;BME280;4909;42.680;26.324;2023-12-20T04:07:50;98742.47;;;6.45;80.08
9740;BME280;4909;42.680;26.324;2023-12-20T04:10:17;98711.06;;;6.37;80.42
9740;BME280;4909;42.680;26.324;2023-12-20T04:12:44;98660.53;;;6.20;79.50
9740;BME280;4909;42.680;26.324;2023-12-20T04:15:11;98719.59;;;6.47;80.00
9740;BME280;4909;42.680;26.324;2023-12-20T04:17:38;98730.41;;;6.36;81.22
9740;BME280;4909;42.680;26.324;2023-12-20T04:20:06;98725.72;;;6.47;80.55
9740;BME280;4909;42.680;26.324;2023-12-20T04:22:35;98666.88;;;6.15;80.86
9740;BME280;4909;42.680;26.324;2023-12-20T04:25:02;98712.59;;;6.44;80.33
9740;BME280;4909;42.680;26.324;2023-12-20T04:27:29;98721.59;;;6.37;81.07
9740;BME280;4909;42.680;26.324;2023-12-20T04:29:56;98650.66;;;5.96;81.25
9740;BME280;4909;42.680;26.324;2023-12-20T04:32:23;98647.47;;;5.82;81.85
9740;BME280;4909;42.680;26.324;2023-12-20T04:34:50;98628.81;;;5.91;81.51
9740;BME280;4909;42.680;26.324;2023-12-20T04:37:17;98659.38;;;5.98;81.49
9740;BME280;4909;42.680;26.324;2023-12-20T04:39:45;98712.91;;;6.34;81.51
9740;BME280;4909;42.680;26.324;2023-12-20T04:42:12;98621.25;;;5.77;80.97
9740;BME280;4909;42.680;26.324;2023-12-20T04:44:39;98648.13;;;5.91;81.69
9740;BME280;4909;42.680;26.324;2023-12-20T04:47:06;98706.78;;;6.33;82.05
9740;BME280;4909;42.680;26.324;2023-12-20T04:49:33;98602.41;;;5.60;81.61
9740;BME280;4909;42.680;26.324;2023-12-20T04:52:00;98707.09;;;6.20;81.67
9740;BME280;4909;42.680;26.324;2023-12-20T04:54:27;98641.16;;;5.90;80.97
9740;BME280;4909;42.680;26.324;2023-12-20T04:56:55;98572.53;;;5.61;80.19
9740;BME280;4909;42.680;26.324;2023-12-20T04:59:23;98706.81;;;6.32;80.80
9740;BME280;4909;42.680;26.324;2023-12-20T05:01:50;98666.50;;;6.28;80.67
9740;BME280;4909;42.680;26.324;2023-12-20T05:04:17;98695.81;;;6.48;80.39
9740;BME280;4909;42.680;26.324;2023-12-20T05:06:44;98585.88;;;5.89;79.76
9740;BME280;4909;42.680;26.324;2023-12-20T05:09:11;98580.09;;;5.73;80.74
9740;BME280;4909;42.680;26.324;2023-12-20T05:11:38;98691.56;;;6.43;80.26
9740;BME280;4909;42.680;26.324;2023-12-20T05:14:06;98650.25;;;6.11;80.78
9740;BME280;4909;42.680;26.324;2023-12-20T05:16:33;98624.13;;;5.68;82.37
9740;BME280;4909;42.680;26.324;2023-12-20T05:19:00;98703.44;;;6.27;82.60
9740;BME280;4909;42.680;26.324;2023-12-20T05:21:32;98706.03;;;6.28;81.55
9740;BME280;4909;42.680;26.324;2023-12-20T05:23:59;98695.41;;;6.31;81.62
9740;BME280;4909;42.680;26.324;2023-12-20T05:26:26;98668.94;;;6.34;81.39
9740;BME280;4909;42.680;26.324;2023-12-20T05:28:55;98671.56;;;6.34;81.77
9740;BME280;4909;42.680;26.324;2023-12-20T05:31:23;98687.06;;;6.46;81.63
9740;BME280;4909;42.680;26.324;2023-12-20T05:33:50;98667.91;;;6.40;80.54
9740;BME280;4909;42.680;26.324;2023-12-20T05:36:18;98681.78;;;6.48;80.83
9740;BME280;4909;42.680;26.324;2023-12-20T05:38:45;98684.94;;;6.61;80.07
9740;BME280;4909;42.680;26.324;2023-12-20T05:41:12;98659.44;;;6.60;79.63
9740;BME280;4909;42.680;26.324;2023-12-20T05:43:39;98659.63;;;6.53;79.86
9740;BME280;4909;42.680;26.324;2023-12-20T05:46:06;98620.47;;;6.40;79.80
9740;BME280;4909;42.680;26.324;2023-12-20T05:48:34;98674.75;;;6.78;79.77
9740;BME280;4909;42.680;26.324;2023-12-20T05:51:01;98667.69;;;6.78;80.08
9740;BME280;4909;42.680;26.324;2023-12-20T05:53:28;98672.50;;;6.95;79.15
9740;BME280;4909;42.680;26.324;2023-12-20T05:55:55;98567.06;;;6.33;78.84
9740;BME280;4909;42.680;26.324;2023-12-20T05:58:24;98623.69;;;6.80;78.03
9740;BME280;4909;42.680;26.324;2023-12-20T06:00:51;98665.03;;;7.09;77.86
9740;BME280;4909;42.680;26.324;2023-12-20T06:03:18;98662.78;;;6.97;78.11
9740;BME280;4909;42.680;26.324;2023-12-20T06:05:47;98636.50;;;6.92;78.39
9740;BME280;4909;42.680;26.324;2023-12-20T06:08:14;98637.50;;;6.88;78.37
9740;BME280;4909;42.680;26.324;2023-12-20T06:10:41;98530.25;;;6.30;78.33
9740;BME280;4909;42.680;26.324;2023-12-20T06:13:08;98600.91;;;6.78;77.79
9740;BME280;4909;42.680;26.324;2023-12-20T06:15:35;98652.19;;;7.26;77.51
9740;BME280;4909;42.680;26.324;2023-12-20T06:18:02;98658.00;;;7.37;76.69
9740;BME280;4909;42.680;26.324;2023-12-20T06:20:29;98608.59;;;7.13;76.27
9740;BME280;4909;42.680;26.324;2023-12-20T06:22:57;98624.16;;;7.22;76.33
9740;BME280;4909;42.680;26.324;2023-12-20T06:25:25;98438.47;;;6.15;76.40
9740;BME280;4909;42.680;26.324;2023-12-20T06:27:52;98656.31;;;7.63;75.59
9740;BME280;4909;42.680;26.324;2023-12-20T06:30:19;98576.88;;;7.16;75.66
9740;BME280;4909;42.680;26.324;2023-12-20T06:32:46;98569.88;;;7.14;75.43
9740;BME280;4909;42.680;26.324;2023-12-20T06:35:13;98629.44;;;7.50;75.76
9740;BME280;4909;42.680;26.324;2023-12-20T06:37:40;98652.84;;;7.61;76.12
9740;BME280;4909;42.680;26.324;2023-12-20T06:40:10;98596.06;;;7.74;75.10
9740;BME280;4909;42.680;26.324;2023-12-20T06:42:38;98579.44;;;8.91;70.75
9740;BME280;4909;42.680;26.324;2023-12-20T06:45:05;98620.91;;;10.41;64.47
9740;BME280;4909;42.680;26.324;2023-12-20T06:47:32;98634.84;;;11.96;58.92
9740;BME280;4909;42.680;26.324;2023-12-20T06:49:59;98608.53;;;12.92;54.32
9740;BME280;4909;42.680;26.324;2023-12-20T06:52:27;98605.78;;;13.87;50.34
9740;BME280;4909;42.680;26.324;2023-12-20T06:54:54;98624.31;;;14.64;48.04
9740;BME280;4909;42.680;26.324;2023-12-20T06:57:22;98620.16;;;14.74;46.57
9740;BME280;4909;42.680;26.324;2023-12-20T06:59:51;98634.28;;;15.05;46.37
9740;BME280;4909;42.680;26.324;2023-12-20T07:02:18;98469.88;;;14.71;44.45
9740;BME280;4909;42.680;26.324;2023-12-20T07:04:46;98557.03;;;15.55;43.04
9740;BME280;4909;42.680;26.324;2023-12-20T07:07:13;98622.31;;;15.53;44.14
9740;BME280;4909;42.680;26.324;2023-12-20T07:09:40;98601.06;;;14.95;44.65
9740;BME280;4909;42.680;26.324;2023-12-20T07:12:08;98567.28;;;14.21;46.85
9740;BME280;4909;42.680;26.324;2023-12-20T07:14:37;98614.03;;;14.72;46.49
9740;BME280;4909;42.680;26.324;2023-12-20T07:17:04;98617.72;;;15.27;45.17
9740;BME280;4909;42.680;26.324;2023-12-20T07:19:33;98609.66;;;16.48;41.44
9740;BME280;4909;42.680;26.324;2023-12-20T07:22:00;98609.97;;;17.32;39.05
9740;BME280;4909;42.680;26.324;2023-12-20T07:24:27;98566.75;;;17.84;37.51
9740;BME280;4909;42.680;26.324;2023-12-20T07:26:54;98581.69;;;18.69;35.73
9740;BME280;4909;42.680;26.324;2023-12-20T07:29:21;98613.88;;;19.37;34.20
9740;BME280;4909;42.680;26.324;2023-12-20T07:31:49;98500.69;;;18.62;33.69
9740;BME280;4909;42.680;26.324;2023-12-20T07:34:17;98608.78;;;19.45;33.98
9740;BME280;4909;42.680;26.324;2023-12-20T07:36:44;98614.13;;;19.57;33.92
9740;BME280;4909;42.680;26.324;2023-12-20T07:39:12;98516.28;;;19.24;33.27
9740;BME280;4909;42.680;26.324;2023-12-20T07:41:39;98560.53;;;19.96;32.27
9740;BME280;4909;42.680;26.324;2023-12-20T07:44:06;98598.63;;;21.07;30.89
9740;BME280;4909;42.680;26.324;2023-12-20T07:46:33;98557.97;;;21.29;30.59
9740;BME280;4909;42.680;26.324;2023-12-20T07:49:03;98551.31;;;22.31;28.51
9740;BME280;4909;42.680;26.324;2023-12-20T07:51:30;98575.19;;;22.74;27.91
9740;BME280;4909;42.680;26.324;2023-12-20T07:53:57;98595.44;;;23.80;27.12
9740;BME280;4909;42.680;26.324;2023-12-20T07:56:24;98600.47;;;24.20;26.16
9740;BME280;4909;42.680;26.324;2023-12-20T07:58:51;98522.56;;;23.95;25.53
9740;BME280;4909;42.680;26.324;2023-12-20T08:01:18;98604.00;;;24.56;25.23
9740;BME280;4909;42.680;26.324;2023-12-20T08:03:45;98580.53;;;24.47;25.62
9740;BME280;4909;42.680;26.324;2023-12-20T08:06:14;98606.34;;;23.89;25.87
9740;BME280;4909;42.680;26.324;2023-12-20T08:08:42;98597.69;;;22.45;28.31
9740;BME280;4909;42.680;26.324;2023-12-20T08:11:09;98600.38;;;22.65;27.56
9740;BME280;4909;42.680;26.324;2023-12-20T08:13:36;98595.41;;;22.70;27.34
9740;BME280;4909;42.680;26.324;2023-12-20T08:16:04;98590.69;;;22.72;26.92
9740;BME280;4909;42.680;26.324;2023-12-20T08:18:31;98587.38;;;22.97;27.02
9740;BME280;4909;42.680;26.324;2023-12-20T08:20:59;98560.44;;;23.32;26.82
9740;BME280;4909;42.680;26.324;2023-12-20T08:23:28;98545.19;;;23.04;27.42
9740;BME280;4909;42.680;26.324;2023-12-20T08:25:55;98575.03;;;22.56;28.23
9740;BME280;4909;42.680;26.324;2023-12-20T08:28:22;98575.16;;;21.68;30.22
9740;BME280;4909;42.680;26.324;2023-12-20T08:30:49;98568.03;;;20.97;31.65
9740;BME280;4909;42.680;26.324;2023-12-20T08:33:19;98573.06;;;20.39;31.91
9740;BME280;4909;42.680;26.324;2023-12-20T08:35:46;98527.81;;;19.69;33.37
9740;BME280;4909;42.680;26.324;2023-12-20T08:38:13;98554.56;;;19.82;33.16
9740;BME280;4909;42.680;26.324;2023-12-20T08:40:41;98537.78;;;19.89;33.45
9740;BME280;4909;42.680;26.324;2023-12-20T08:43:08;98526.44;;;20.07;32.86
9740;BME280;4909;42.680;26.324;2023-12-20T08:45:35;98541.59;;;20.28;33.04
9740;BME280;4909;42.680;26.324;2023-12-20T08:48:03;98507.91;;;20.13;32.90
9740;BME280;4909;42.680;26.324;2023-12-20T08:50:30;98527.03;;;20.10;33.17
9740;BME280;4909;42.680;26.324;2023-12-20T08:52:57;98497.81;;;19.31;34.31
9740;BME280;4909;42.680;26.324;2023-12-20T08:55:23;98511.22;;;19.42;34.61
9740;BME280;4909;42.680;26.324;2023-12-20T08:57:53;98497.28;;;19.37;35.65
9740;BME280;4909;42.680;26.324;2023-12-20T09:00:20;98505.69;;;19.00;37.02
9740;BME280;4909;42.680;26.324;2023-12-20T09:02:49;98494.69;;;18.81;37.39
9740;BME280;4909;42.680;26.324;2023-12-20T09:05:16;98481.78;;;18.40;39.73
9740;BME280;4909;42.680;26.324;2023-12-20T09:07:43;98468.00;;;18.22;40.06
9740;BME280;4909;42.680;26.324;2023-12-20T09:10:10;98456.16;;;18.47;39.38
9740;BME280;4909;42.680;26.324;2023-12-20T09:12:39;98479.97;;;19.07;37.94
9740;BME280;4909;42.680;26.324;2023-12-20T09:15:08;98434.00;;;19.22;36.80
9740;BME280;4909;42.680;26.324;2023-12-20T09:17:35;98473.50;;;19.10;37.27
9740;BME280;4909;42.680;26.324;2023-12-20T09:20:02;98470.13;;;18.86;38.30
9740;BME280;4909;42.680;26.324;2023-12-20T09:22:31;98464.38;;;19.33;36.65
9740;BME280;4909;42.680;26.324;2023-12-20T09:24:59;98466.94;;;19.78;35.87
9740;BME280;4909;42.680;26.324;2023-12-20T09:27:25;98457.81;;;19.26;36.02
9740;BME280;4909;42.680;26.324;2023-12-20T09:29:52;98439.09;;;18.82;37.11
9740;BME280;4909;42.680;26.324;2023-12-20T09:32:21;98448.38;;;18.66;38.34
9740;BME280;4909;42.680;26.324;2023-12-20T09:34:48;98404.34;;;18.45;39.21
9740;BME280;4909;42.680;26.324;2023-12-20T09:37:15;98437.38;;;18.70;38.72
9740;BME280;4909;42.680;26.324;2023-12-20T09:39:42;98439.22;;;18.58;38.60
9740;BME280;4909;42.680;26.324;2023-12-20T09:42:11;98429.28;;;18.47;38.51
9740;BME280;4909;42.680;26.324;2023-12-20T09:44:39;98431.47;;;18.09;39.75
9740;BME280;4909;42.680;26.324;2023-12-20T09:47:08;98402.13;;;17.84;39.97
9740;BME280;4909;42.680;26.324;2023-12-20T09:49:37;98413.13;;;17.57;40.94
9740;BME280;4909;42.680;26.324;2023-12-20T09:52:05;98318.22;;;16.28;43.01
9740;BME280;4909;42.680;26.324;2023-12-20T09:54:34;98406.22;;;16.58;44.71
9740;BME280;4909;42.680;26.324;2023-12-20T09:57:01;98356.19;;;16.09;44.66
9740;BME280;4909;42.680;26.324;2023-12-20T09:59:28;98398.56;;;16.40;44.56
9740;BME280;4909;42.680;26.324;2023-12-20T10:01:55;98376.97;;;15.93;46.62
9740;BME280;4909;42.680;26.324;2023-12-20T10:04:23;98390.22;;;15.56;49.03
9740;BME280;4909;42.680;26.324;2023-12-20T10:06:52;98345.63;;;15.17;50.18
9740;BME280;4909;42.680;26.324;2023-12-20T10:09:19;98372.00;;;15.49;50.14
9740;BME280;4909;42.680;26.324;2023-12-20T10:11:46;98292.66;;;14.85;50.81
9740;BME280;4909;42.680;26.324;2023-12-20T10:14:14;98377.09;;;15.53;51.18
9740;BME280;4909;42.680;26.324;2023-12-20T10:16:41;98356.25;;;15.32;52.46
9740;BME280;4909;42.680;26.324;2023-12-20T10:19:07;98345.00;;;15.27;52.78
9740;BME280;4909;42.680;26.324;2023-12-20T10:21:35;98351.59;;;14.96;53.10
9740;BME280;4909;42.680;26.324;2023-12-20T10:24:03;98362.31;;;15.21;53.97
9740;BME280;4909;42.680;26.324;2023-12-20T10:26:31;98324.53;;;15.00;55.43
9740;BME280;4909;42.680;26.324;2023-12-20T10:29:00;98333.03;;;15.19;53.78
9740;BME280;4909;42.680;26.324;2023-12-20T10:34:14;98327.38;;;15.37;52.27
9740;BME280;4909;42.680;26.324;2023-12-20T10:36:41;98323.53;;;15.41;51.87
9740;BME280;4909;42.680;26.324;2023-12-20T10:39:11;98318.38;;;15.25;52.99
9740;BME280;4909;42.680;26.324;2023-12-20T10:41:42;98313.38;;;15.46;52.63
9740;BME280;4909;42.680;26.324;2023-12-20T10:44:10;98318.97;;;15.55;52.36
9740;BME280;4909;42.680;26.324;2023-12-20T10:46:39;98312.75;;;15.55;52.17
9740;BME280;4909;42.680;26.324;2023-12-20T10:49:13;98309.72;;;15.21;53.22
9740;BME280;4909;42.680;26.324;2023-12-20T10:51:42;98309.47;;;14.99;54.09
9740;BME280;4909;42.680;26.324;2023-12-20T10:54:12;98228.47;;;14.59;53.55
9740;BME280;4909;42.680;26.324;2023-12-20T10:56:40;98257.47;;;14.78;53.33
9740;BME280;4909;42.680;26.324;2023-12-20T10:59:09;98307.97;;;15.20;52.37
9740;BME280;4909;42.680;26.324;2023-12-20T11:01:38;98286.91;;;15.16;53.40
9740;BME280;4909;42.680;26.324;2023-12-20T11:04:10;98275.03;;;15.07;53.38
9740;BME280;4909;42.680;26.324;2023-12-20T11:06:46;98281.00;;;14.86;52.25
9740;BME280;4909;42.680;26.324;2023-12-20T11:09:22;98278.34;;;14.98;51.75
9740;BME280;4909;42.680;26.324;2023-12-20T11:12:01;98276.16;;;14.78;54.62
9740;BME280;4909;42.680;26.324;2023-12-20T11:14:37;98252.91;;;14.53;55.23
9740;BME280;4909;42.680;26.324;2023-12-20T11:17:06;98242.19;;;14.41;55.55
9740;BME280;4909;42.680;26.324;2023-12-20T11:19:36;98286.59;;;14.68;56.17
9740;BME280;4909;42.680;26.324;2023-12-20T11:22:04;98274.41;;;14.64;57.10
9740;BME280;4909;42.680;26.324;2023-12-20T11:24:33;98282.22;;;14.67;57.93
9740;BME280;4909;42.680;26.324;2023-12-20T11:27:03;98257.06;;;14.57;57.82
9740;BME280;4909;42.680;26.324;2023-12-20T11:29:34;98271.09;;;14.61;57.71
9740;BME280;4909;42.680;26.324;2023-12-20T11:32:02;98275.72;;;14.45;58.44
9740;BME280;4909;42.680;26.324;2023-12-20T11:34:31;98265.69;;;14.48;58.50
9740;BME280;4909;42.680;26.324;2023-12-20T11:36:59;98248.19;;;14.30;58.61
9740;BME280;4909;42.680;26.324;2023-12-20T11:39:27;98251.94;;;14.27;59.10
9740;BME280;4909;42.680;26.324;2023-12-20T11:41:56;98244.81;;;13.73;60.28
9740;BME280;4909;42.680;26.324;2023-12-20T11:44:25;98244.53;;;13.35;61.83
9740;BME280;4909;42.680;26.324;2023-12-20T11:46:53;98236.81;;;13.59;61.10
9740;BME280;4909;42.680;26.324;2023-12-20T11:49:23;98205.09;;;13.68;59.58
9740;BME280;4909;42.680;26.324;2023-12-20T11:51:51;98219.72;;;13.75;60.14
9740;BME280;4909;42.680;26.324;2023-12-20T11:54:18;98201.84;;;13.77;59.88
9740;BME280;4909;42.680;26.324;2023-12-20T11:56:46;98213.34;;;13.92;59.95
9740;BME280;4909;42.680;26.324;2023-12-20T11:59:15;98209.97;;;14.03;59.92
9740;BME280;4909;42.680;26.324;2023-12-20T12:01:48;98200.38;;;13.31;62.25
9740;BME280;4909;42.680;26.324;2023-12-20T12:04:16;98208.09;;;13.35;62.82
9740;BME280;4909;42.680;26.324;2023-12-20T12:06:43;98200.94;;;13.50;62.34
9740;BME280;4909;42.680;26.324;2023-12-20T12:09:11;98153.34;;;13.44;62.12
9740;BME280;4909;42.680;26.324;2023-12-20T12:11:38;98173.81;;;13.84;61.72
9740;BME280;4909;42.680;26.324;2023-12-20T12:14:06;98194.66;;;13.92;61.70
9740;BME280;4909;42.680;26.324;2023-12-20T12:16:35;98161.44;;;13.83;61.79
9740;BME280;4909;42.680;26.324;2023-12-20T12:19:02;98184.72;;;14.08;62.40
9740;BME280;4909;42.680;26.324;2023-12-20T12:21:29;98176.88;;;14.05;62.29
9740;BME280;4909;42.680;26.324;2023-12-20T12:24:06;98176.63;;;13.96;62.13
9740;BME280;4909;42.680;26.324;2023-12-20T12:26:33;98170.25;;;13.98;61.84
9740;BME280;4909;42.680;26.324;2023-12-20T12:29:00;98174.03;;;14.08;61.34
9740;BME280;4909;42.680;26.324;2023-12-20T12:31:28;98152.13;;;14.03;61.16
9740;BME280;4909;42.680;26.324;2023-12-20T12:33:57;98170.94;;;14.14;60.34
9740;BME280;4909;42.680;26.324;2023-12-20T12:36:24;98166.31;;;14.30;59.06
9740;BME280;4909;42.680;26.324;2023-12-20T12:38:51;98160.50;;;14.24;58.09
9740;BME280;4909;42.680;26.324;2023-12-20T12:41:18;98134.41;;;14.02;55.58
9740;BME280;4909;42.680;26.324;2023-12-20T12:43:45;98158.44;;;14.15;55.45
9740;BME280;4909;42.680;26.324;2023-12-20T12:46:12;98156.31;;;14.07;56.75
9740;BME280;4909;42.680;26.324;2023-12-20T12:48:39;98148.22;;;13.94;59.81
9740;BME280;4909;42.680;26.324;2023-12-20T12:51:07;98142.31;;;14.04;59.31
9740;BME280;4909;42.680;26.324;2023-12-20T12:53:38;98140.03;;;13.98;60.54
9740;BME280;4909;42.680;26.324;2023-12-20T12:56:05;98134.66;;;14.12;60.31
9740;BME280;4909;42.680;26.324;2023-12-20T12:58:33;98131.03;;;14.13;60.26
9740;BME280;4909;42.680;26.324;2023-12-20T13:01:00;98134.25;;;14.18;59.70
9740;BME280;4909;42.680;26.324;2023-12-20T13:03:29;98132.84;;;14.12;60.68
9740;BME280;4909;42.680;26.324;2023-12-20T13:05:56;98080.00;;;13.78;60.43
9740;BME280;4909;42.680;26.324;2023-12-20T13:08:24;98105.16;;;14.01;60.15
9740;BME280;4909;42.680;26.324;2023-12-20T13:10:51;98129.63;;;14.20;59.24
9740;BME280;4909;42.680;26.324;2023-12-20T13:13:18;98117.56;;;14.14;59.21
9740;BME280;4909;42.680;26.324;2023-12-20T13:15:45;98123.50;;;14.05;59.70
9740;BME280;4909;42.680;26.324;2023-12-20T13:18:16;98071.53;;;13.71;59.40
9740;BME280;4909;42.680;26.324;2023-12-20T13:20:44;98087.38;;;13.74;59.42
9740;BME280;4909;42.680;26.324;2023-12-20T13:23:11;98120.50;;;13.97;58.83